Time;durP1;ratioP1;P1;durP2;ratioP2;P2;SDS_P1;SDS_P2;PMS_P1;PMS_P2;Temp;Humidity;BMP_temperature;BMP_pressure;BME280_temperature;BME280_humidity;BME280_pressure;Samples;Min_cycle;Max_cycle;Signal;HPM_P1;HPM_P2
2023/11/18 00:01:43;;;;;;;;;;;;;;;;;;5052901;28;19916;-77
2023/11/18 00:04:15;;;;;;;;;;;;;;;;;;5070440;28;19938;-77
2023/11/18 00:06:40;;;;;;;;;;;;;;;;;;5056744;28;20007;-77
2023/11/18 00:09:06;;;;;;;;;;;;;;;;;;5042065;28;20414;-77
2023/11/18 00:11:31;;;;;;;;;;;;;;;;;;5057639;28;20031;-75
2023/11/18 00:13:56;;;;;;;;;;;;;;;;;;5069049;28;19922;-77
2023/11/18 00:16:22;;;;;;;;;;;;;;;;;;5053640;28;20316;-77
2023/11/18 00:18:48;;;;;;;;;;;;;;;;;;5053312;28;19920;-77
2023/11/18 00:21:13;;;;;;;;;;;;;;;;;;5069428;28;19923;-77
2023/11/18 00:26:30;;;;;;;;;;;;;;;;;;5069359;28;19958;-75
2023/11/18 00:28:55;;;;;;;;;;;;;;;;;;5042318;28;20014;-75
2023/11/18 00:31:21;;;;;;;;;;;;;;;;;;5046815;28;20010;-75
2023/11/18 00:33:46;;;;;;;;;;;;;;;;;;5058200;28;20595;-75
2023/11/18 00:36:11;;;;;;;;;;;;;;;;;;5041227;28;19920;-75
2023/11/18 00:41:53;;;;;;;;;;;;;;;;;;5069877;28;20501;-77
2023/11/18 00:44:21;;;;;;;;;;;;;;;;;;5038828;28;19926;-76
2023/11/18 00:46:46;;;;;;;;;;;;;;;;;;5056988;28;19920;-76
2023/11/18 00:49:12;;;;;;;;;;;;;;;;;;5054659;28;20426;-78
2023/11/18 00:51:37;;;;;;;;;;;;;;;;;;5054493;28;20172;-78
2023/11/18 00:54:05;;;;;;;;;;;;;;;;;;5053835;28;20315;-76
2023/11/18 00:56:30;;;;;;;;;;;;;;;;;;5051068;28;19922;-77
2023/11/18 00:58:56;;;;;;;;;;;;;;;;;;5057193;28;19921;-76
2023/11/18 01:01:21;;;;;;;;;;;;;;;;;;5039703;28;20016;-77
2023/11/18 01:03:46;;;;;;;;;;;;;;;;;;5056068;28;19962;-76
2023/11/18 01:06:12;;;;;;;;;;;;;;;;;;5054873;28;19913;-77
2023/11/18 01:08:37;;;;;;;;;;;;;;;;;;5051894;28;19979;-77
2023/11/18 01:11:04;;;;;;;;;;;;;;;;;;5057065;28;20296;-77
2023/11/18 01:13:32;;;;;;;;;;;;;;;;;;5041060;28;19920;-77
2023/11/18 01:15:57;;;;;;;;;;;;;;;;;;5053913;28;20439;-77
2023/11/18 01:18:25;;;;;;;;;;;;;;;;;;5051207;28;20297;-77
2023/11/18 01:20:51;;;;;;;;;;;;;;;;;;5055041;28;20379;-78
2023/11/18 01:23:18;;;;;;;;;;;;;;;;;;5062007;28;19924;-77
2023/11/18 01:25:44;;;;;;;;;;;;;;;;;;5069975;28;20287;-77
2023/11/18 01:28:11;;;;;;;;;;;;;;;;;;5056751;28;20231;-77
2023/11/18 01:30:36;;;;;;;;;;;;;;;;;;5040653;28;20343;-77
2023/11/18 01:33:02;;;;;;;;;;;;;;;;;;5054835;28;19927;-77
2023/11/18 01:35:27;;;;;;;;;;;;;;;;;;5040662;28;20336;-77
2023/11/18 01:38:05;;;;;;;;;;;;;;;;;;5055357;28;19916;-77
2023/11/18 01:40:31;;;;;;;;;;;;;;;;;;5055949;28;19916;-77
2023/11/18 01:42:56;;;;;;;;;;;;;;;;;;5052403;28;20423;-78
2023/11/18 01:45:21;;;;;;;;;;;;;;;;;;5068267;28;20699;-77
2023/11/18 01:47:48;;;;;;;;;;;;;;;;;;5058255;28;20447;-78
2023/11/18 01:50:14;;;;;;;;;;;;;;;;;;5062166;28;20395;-77
2023/11/18 01:52:39;;;;;;;;;;;;;;;;;;5054634;28;19916;-77
2023/11/18 01:55:06;;;;;;;;;;;;;;;;;;5049190;28;20398;-77
2023/11/18 01:57:33;;;;;;;;;;;;;;;;;;5076575;28;19924;-77
2023/11/18 01:59:58;;;;;;;;;;;;;;;;;;5077343;28;19915;-77
2023/11/18 02:02:23;;;;;;;;;;;;;;;;;;5058832;28;20389;-77
2023/11/18 02:04:49;;;;;;;;;;;;;;;;;;5058676;28;20292;-77
2023/11/18 02:07:15;;;;;;;;;;;;;;;;;;5076431;28;20035;-77
2023/11/18 02:09:40;;;;;;;;;;;;;;;;;;5089606;28;19987;-77
2023/11/18 02:12:09;;;;;;;;;;;;;;;;;;5057031;28;20279;-77
2023/11/18 02:14:37;;;;;;;;;;;;;;;;;;5074052;28;20047;-77
2023/11/18 02:17:05;;;;;;;;;;;;;;;;;;5072825;28;20271;-77
2023/11/18 02:19:30;;;;;;;;;;;;;;;;;;5065837;28;19920;-76
2023/11/18 02:21:56;;;;;;;;;;;;;;;;;;5073541;28;19920;-77
2023/11/18 02:24:21;;;;;;;;;;;;;;;;;;5088536;28;19916;-77
2023/11/18 02:26:47;;;;;;;;;;;;;;;;;;5074773;28;19927;-77
2023/11/18 02:29:14;;;;;;;;;;;;;;;;;;5075158;28;19938;-77
2023/11/18 02:31:41;;;;;;;;;;;;;;;;;;5088603;28;20442;-77
2023/11/18 02:34:07;;;;;;;;;;;;;;;;;;5073721;28;19916;-73
2023/11/18 02:36:38;;;;;;;;;;;;;;;;;;5089546;28;19935;-77
2023/11/18 02:39:07;;;;;;;;;;;;;;;;;;5070146;28;19923;-76
2023/11/18 02:41:32;;;;;;;;;;;;;;;;;;5086484;28;20044;-76
2023/11/18 02:43:58;;;;;;;;;;;;;;;;;;5072882;28;19954;-77
2023/11/18 02:46:23;;;;;;;;;;;;;;;;;;5058091;28;20284;-77
2023/11/18 02:48:48;;;;;;;;;;;;;;;;;;5086938;28;20452;-78
2023/11/18 02:54:32;;;;;;;;;;;;;;;;;;5081952;28;20299;-77
2023/11/18 02:57:01;;;;;;;;;;;;;;;;;;5037837;28;20122;-76
2023/11/18 02:59:30;;;;;;;;;;;;;;;;;;5052788;28;19920;-75
2023/11/18 03:02:01;;;;;;;;;;;;;;;;;;5039815;28;19916;-77
2023/11/18 03:04:29;;;;;;;;;;;;;;;;;;5039406;28;19912;-72
2023/11/18 03:06:57;;;;;;;;;;;;;;;;;;5052388;28;19921;-76
2023/11/18 03:09:27;;;;;;;;;;;;;;;;;;5054721;28;19916;-76
2023/11/18 03:11:52;;;;;;;;;;;;;;;;;;5055577;28;19924;-72
2023/11/18 03:14:20;;;;;;;;;;;;;;;;;;5040417;28;19965;-76
2023/11/18 03:16:46;;;;;;;;;;;;;;;;;;5058176;28;19942;-76
2023/11/18 03:19:13;;;;;;;;;;;;;;;;;;5072557;28;19982;-76
2023/11/18 03:21:42;;;;;;;;;;;;;;;;;;5058477;28;19936;-75
2023/11/18 03:24:07;;;;;;;;;;;;;;;;;;5041953;28;19920;-76
2023/11/18 03:26:35;;;;;;;;;;;;;;;;;;5043703;28;20052;-75
2023/11/18 03:29:03;;;;;;;;;;;;;;;;;;5055568;28;19920;-77
2023/11/18 03:31:28;;;;;;;;;;;;;;;;;;5051730;28;19977;-76
2023/11/18 03:33:54;;;;;;;;;;;;;;;;;;5042038;28;19928;-76
2023/11/18 03:36:19;;;;;;;;;;;;;;;;;;5041048;28;19920;-76
2023/11/18 03:38:48;;;;;;;;;;;;;;;;;;5058611;28;20201;-77
2023/11/18 03:41:13;;;;;;;;;;;;;;;;;;5070508;28;19916;-75
2023/11/18 03:43:41;;;;;;;;;;;;;;;;;;5040019;28;19927;-76
2023/11/18 03:46:10;;;;;;;;;;;;;;;;;;5057548;28;19920;-74
2023/11/18 03:48:35;;;;;;;;;;;;;;;;;;5057360;28;19972;-76
2023/11/18 03:51:04;;;;;;;;;;;;;;;;;;5056473;28;19951;-74
2023/11/18 03:56:45;;;;;;;;;;;;;;;;;;5066362;28;19935;-76
2023/11/18 03:59:14;;;;;;;;;;;;;;;;;;5066722;28;19921;-76
2023/11/18 04:01:40;;;;;;;;;;;;;;;;;;5035759;28;20006;-76
2023/11/18 04:04:06;;;;;;;;;;;;;;;;;;5035584;28;19931;-77
2023/11/18 04:06:31;;;;;;;;;;;;;;;;;;5064301;28;19917;-77
2023/11/18 04:08:59;;;;;;;;;;;;;;;;;;5059313;28;19923;-76
2023/11/18 04:11:26;;;;;;;;;;;;;;;;;;5044005;28;20481;-75
2023/11/18 04:13:54;;;;;;;;;;;;;;;;;;5066615;28;19960;-76
2023/11/18 04:16:23;;;;;;;;;;;;;;;;;;5046645;28;20414;-77
2023/11/18 04:18:48;;;;;;;;;;;;;;;;;;5050845;28;19924;-76
2023/11/18 04:21:13;;;;;;;;;;;;;;;;;;5061625;28;19916;-75
2023/11/18 04:23:39;;;;;;;;;;;;;;;;;;5061441;28;20342;-76
2023/11/18 04:26:04;;;;;;;;;;;;;;;;;;5044911;28;19921;-77
2023/11/18 04:28:30;;;;;;;;;;;;;;;;;;5036522;28;19916;-77
2023/11/18 04:30:55;;;;;;;;;;;;;;;;;;5053259;28;19928;-74
2023/11/18 04:33:20;;;;;;;;;;;;;;;;;;5048151;28;19924;-76
2023/11/18 04:35:46;;;;;;;;;;;;;;;;;;5065691;28;20291;-76
2023/11/18 04:38:11;;;;;;;;;;;;;;;;;;5065795;28;19917;-76
2023/11/18 04:40:38;;;;;;;;;;;;;;;;;;5046662;28;20129;-76
2023/11/18 04:43:04;;;;;;;;;;;;;;;;;;5064491;28;19974;-77
2023/11/18 04:45:30;;;;;;;;;;;;;;;;;;5028731;28;20568;-77
2023/11/18 04:47:56;;;;;;;;;;;;;;;;;;5035041;28;19920;-75
2023/11/18 04:53:18;;;;;;;;;;;;;;;;;;5065960;28;19958;-76
2023/11/18 04:55:43;;;;;;;;;;;;;;;;;;5048330;28;20066;-76
2023/11/18 04:58:09;;;;;;;;;;;;;;;;;;5053539;28;19916;-76
2023/11/18 05:00:34;;;;;;;;;;;;;;;;;;5066014;28;19973;-76
2023/11/18 05:03:00;;;;;;;;;;;;;;;;;;5070237;28;19916;-76
2023/11/18 05:05:25;;;;;;;;;;;;;;;;;;5067867;28;20383;-76
2023/11/18 05:07:50;;;;;;;;;;;;;;;;;;5071443;28;19966;-77
2023/11/18 05:10:16;;;;;;;;;;;;;;;;;;5053219;28;20026;-76
2023/11/18 05:12:43;;;;;;;;;;;;;;;;;;5069821;28;19916;-76
2023/11/18 05:15:09;;;;;;;;;;;;;;;;;;5068617;28;19967;-76
2023/11/18 05:17:35;;;;;;;;;;;;;;;;;;5071439;28;20332;-76
2023/11/18 05:20:00;;;;;;;;;;;;;;;;;;5082416;28;19931;-76
2023/11/18 05:22:26;;;;;;;;;;;;;;;;;;5068019;28;19954;-74
2023/11/18 05:25:07;;;;;;;;;;;;;;;;;;5053504;28;20375;-75
2023/11/18 05:27:33;;;;;;;;;;;;;;;;;;5067506;28;19916;-75
2023/11/18 05:29:59;;;;;;;;;;;;;;;;;;5068831;28;20336;-75
2023/11/18 05:32:25;;;;;;;;;;;;;;;;;;5053765;28;20363;-75
2023/11/18 05:34:53;;;;;;;;;;;;;;;;;;5068315;28;20016;-76
2023/11/18 05:37:18;;;;;;;;;;;;;;;;;;5069921;28;19936;-76
2023/11/18 05:39:45;;;;;;;;;;;;;;;;;;5065633;28;19916;-73
2023/11/18 05:42:10;;;;;;;;;;;;;;;;;;5068329;28;19958;-76
2023/11/18 05:44:37;;;;;;;;;;;;;;;;;;5052594;28;19920;-75
2023/11/18 05:47:03;;;;;;;;;;;;;;;;;;5055644;28;19931;-76
2023/11/18 05:52:44;;;;;;;;;;;;;;;;;;5067391;28;19919;-75
2023/11/18 05:55:10;;;;;;;;;;;;;;;;;;5073713;28;19927;-76
2023/11/18 05:57:36;;;;;;;;;;;;;;;;;;5057430;28;20448;-75
2023/11/18 06:00:01;;;;;;;;;;;;;;;;;;5086527;28;19946;-76
2023/11/18 06:02:26;;;;;;;;;;;;;;;;;;5060183;28;19916;-76
2023/11/18 06:04:52;;;;;;;;;;;;;;;;;;5065024;28;19923;-76
2023/11/18 06:07:19;;;;;;;;;;;;;;;;;;5092070;28;19924;-75
2023/11/18 06:09:46;;;;;;;;;;;;;;;;;;5077653;28;19916;-75
2023/11/18 06:12:12;;;;;;;;;;;;;;;;;;5073232;28;19916;-75
2023/11/18 06:14:39;;;;;;;;;;;;;;;;;;5083445;28;19919;-73
2023/11/18 06:17:07;;;;;;;;;;;;;;;;;;5074375;28;19931;-75
2023/11/18 06:19:32;;;;;;;;;;;;;;;;;;5077663;28;19915;-70
2023/11/18 06:21:57;;;;;;;;;;;;;;;;;;5072001;28;19920;-76
2023/11/18 06:24:23;;;;;;;;;;;;;;;;;;5074485;28;19969;-76
2023/11/18 06:27:08;;;;;;;;;;;;;;;;;;5077979;28;19923;-76
2023/11/18 06:29:33;;;;;;;;;;;;;;;;;;5089312;28;20069;-75
2023/11/18 06:31:59;;;;;;;;;;;;;;;;;;5094300;28;20274;-75
2023/11/18 06:34:26;;;;;;;;;;;;;;;;;;5094672;28;19981;-73
2023/11/18 06:36:52;;;;;;;;;;;;;;;;;;5095301;28;19968;-76
2023/11/18 06:39:19;;;;;;;;;;;;;;;;;;5083843;28;20553;-76
2023/11/18 06:41:49;;;;;;;;;;;;;;;;;;5061109;28;20271;-76
2023/11/18 06:44:23;;;;;;;;;;;;;;;;;;5092610;28;20020;-76
2023/11/18 06:46:50;;;;;;;;;;;;;;;;;;5057392;28;19920;-76
2023/11/18 06:49:16;;;;;;;;;;;;;;;;;;5074197;28;20291;-75
2023/11/18 06:51:42;;;;;;;;;;;;;;;;;;5059985;27;19930;-74
2023/11/18 06:54:13;;;;;;;;;;;;;;;;;;5072469;27;20010;-77
2023/11/18 06:56:38;;;;;;;;;;;;;;;;;;5057601;28;20020;-76
2023/11/18 06:59:04;;;;;;;;;;;;;;;;;;5071438;28;20403;-77
2023/11/18 07:01:30;;;;;;;;;;;;;;;;;;5058341;28;19916;-76
2023/11/18 07:03:56;;;;;;;;;;;;;;;;;;5041535;28;20219;-76
2023/11/18 07:06:26;;;;;;;;;;;;;;;;;;5056656;28;20337;-76
2023/11/18 07:08:51;;;;;;;;;;;;;;;;;;5068599;28;21162;-77
2023/11/18 07:11:17;;;;;;;;;;;;;;;;;;5070552;28;19962;-76
2023/11/18 07:13:42;;;;;;;;;;;;;;;;;;5052063;28;19916;-76
2023/11/18 07:16:08;;;;;;;;;;;;;;;;;;5071647;28;20295;-77
2023/11/18 07:18:34;;;;;;;;;;;;;;;;;;5056308;28;19920;-77
2023/11/18 07:20:59;;;;;;;;;;;;;;;;;;5039525;28;19920;-77
2023/11/18 07:23:25;;;;;;;;;;;;;;;;;;5058130;28;20284;-77
2023/11/18 07:25:53;;;;;;;;;;;;;;;;;;5057902;28;19916;-77
2023/11/18 07:28:18;;;;;;;;;;;;;;;;;;5056730;28;20838;-77
2023/11/18 07:30:47;;;;;;;;;;;;;;;;;;5058763;28;19920;-76
2023/11/18 07:33:12;;;;;;;;;;;;;;;;;;5048559;28;19938;-76
2023/11/18 07:35:37;;;;;;;;;;;;;;;;;;5044250;28;19932;-76
2023/11/18 07:38:03;;;;;;;;;;;;;;;;;;5060119;28;19992;-76
2023/11/18 07:43:44;;;;;;;;;;;;;;;;;;5072062;28;20802;-76
2023/11/18 07:46:09;;;;;;;;;;;;;;;;;;5043250;28;19916;-76
2023/11/18 07:48:35;;;;;;;;;;;;;;;;;;5059006;28;20367;-76
2023/11/18 07:51:00;;;;;;;;;;;;;;;;;;5042366;28;20246;-75
2023/11/18 07:53:29;;;;;;;;;;;;;;;;;;5060489;28;19950;-76
2023/11/18 07:59:15;;;;;;;;;;;;;;;;;;5070705;28;19927;-76
2023/11/18 08:01:44;;;;;;;;;;;;;;;;;;5058999;28;19939;-77
2023/11/18 08:04:09;;;;;;;;;;;;;;;;;;5043105;28;20014;-76
2023/11/18 08:06:34;;;;;;;;;;;;;;;;;;5031118;28;19921;-76
2023/11/18 08:09:02;;;;;;;;;;;;;;;;;;5072014;28;19920;-76
2023/11/18 08:11:29;;;;;;;;;;;;;;;;;;5070520;28;19985;-73
2023/11/18 08:13:54;;;;;;;;;;;;;;;;;;5040470;28;19958;-77
2023/11/18 08:16:22;;;;;;;;;;;;;;;;;;5042581;28;20599;-77
2023/11/18 08:18:47;;;;;;;;;;;;;;;;;;5057808;28;19916;-77
2023/11/18 08:21:14;;;;;;;;;;;;;;;;;;5058961;28;19920;-76
2023/11/18 08:23:40;;;;;;;;;;;;;;;;;;5056800;28;20441;-76
2023/11/18 08:26:06;;;;;;;;;;;;;;;;;;5057324;28;19950;-76
2023/11/18 08:28:32;;;;;;;;;;;;;;;;;;5039032;28;19951;-76
2023/11/18 08:30:57;;;;;;;;;;;;;;;;;;5072536;28;20383;-75
2023/11/18 08:33:25;;;;;;;;;;;;;;;;;;5038296;28;19919;-76
2023/11/18 08:35:54;;;;;;;;;;;;;;;;;;5054648;28;19920;-75
2023/11/18 08:38:19;;;;;;;;;;;;;;;;;;5040818;28;19960;-76
2023/11/18 08:40:47;;;;;;;;;;;;;;;;;;5040483;28;19947;-76
2023/11/18 08:43:12;;;;;;;;;;;;;;;;;;5055210;28;19916;-76
2023/11/18 08:45:37;;;;;;;;;;;;;;;;;;5066582;28;19978;-76
2023/11/18 08:51:20;;;;;;;;;;;;;;;;;;5066082;28;20063;-77
2023/11/18 08:53:46;;;;;;;;;;;;;;;;;;5056183;28;19916;-76
2023/11/18 08:56:13;;;;;;;;;;;;;;;;;;5042978;28;19935;-76
2023/11/18 08:58:40;;;;;;;;;;;;;;;;;;5055091;28;19920;-77
2023/11/18 09:01:12;;;;;;;;;;;;;;;;;;5058440;28;19963;-76
2023/11/18 09:03:42;;;;;;;;;;;;;;;;;;5052551;28;19923;-75
2023/11/18 09:06:25;;;;;;;;;;;;;;;;;;5064005;28;20295;-76
2023/11/18 09:08:52;;;;;;;;;;;;;;;;;;5067854;28;19916;-74
2023/11/18 09:11:17;;;;;;;;;;;;;;;;;;5051189;28;19917;-75
2023/11/18 09:13:48;;;;;;;;;;;;;;;;;;5065331;28;19924;-75
2023/11/18 09:16:13;;;;;;;;;;;;;;;;;;5056159;28;19931;-75
2023/11/18 09:18:39;;;;;;;;;;;;;;;;;;5053101;28;19920;-74
2023/11/18 09:21:06;;;;;;;;;;;;;;;;;;5036133;28;19916;-71
2023/11/18 09:23:34;;;;;;;;;;;;;;;;;;5053339;28;20367;-76
2023/11/18 09:26:00;;;;;;;;;;;;;;;;;;5066854;28;19916;-76
2023/11/18 09:28:28;;;;;;;;;;;;;;;;;;5039050;28;19965;-75
2023/11/18 09:30:53;;;;;;;;;;;;;;;;;;5066909;28;19916;-77
2023/11/18 09:33:33;;;;;;;;;;;;;;;;;;5068434;28;19927;-77
2023/11/18 09:39:28;;;;;;;;;;;;;;;;;;5066243;28;20059;-76
2023/11/18 09:41:57;;;;;;;;;;;;;;;;;;5053765;28;19954;-77
2023/11/18 09:44:26;;;;;;;;;;;;;;;;;;5036144;28;19916;-77
2023/11/18 09:49:46;;;;;;;;;;;;;;;;;;5069162;28;19920;-75
2023/11/18 09:52:13;;;;;;;;;;;;;;;;;;5068891;28;20257;-75
2023/11/18 09:54:41;;;;;;;;;;;;;;;;;;5039913;28;20054;-76
2023/11/18 09:57:12;;;;;;;;;;;;;;;;;;5066482;28;20517;-76
2023/11/18 10:03:00;;;;;;;;;;;;;;;;;;5068572;28;20337;-76
2023/11/18 10:05:26;;;;;;;;;;;;;;;;;;5068738;28;19928;-78
2023/11/18 10:07:51;;;;;;;;;;;;;;;;;;5066917;28;19920;-77
2023/11/18 10:10:20;;;;;;;;;;;;;;;;;;5055511;28;20015;-75
2023/11/18 10:16:08;;;;;;;;;;;;;;;;;;5068569;28;19928;-78
2023/11/18 10:18:36;;;;;;;;;;;;;;;;;;5054893;28;19998;-78
2023/11/18 10:21:07;;;;;;;;;;;;;;;;;;5052317;28;20464;-77
2023/11/18 10:23:33;;;;;;;;;;;;;;;;;;5056848;28;19977;-76
2023/11/18 10:26:00;;;;;;;;;;;;;;;;;;5056737;28;19962;-77
2023/11/18 10:28:29;;;;;;;;;;;;;;;;;;5060879;28;19916;-76
2023/11/18 10:30:57;;;;;;;;;;;;;;;;;;5055642;28;19916;-76
2023/11/18 10:33:23;;;;;;;;;;;;;;;;;;5061278;28;19920;-76
2023/11/18 10:35:51;;;;;;;;;;;;;;;;;;5073384;28;19972;-73
2023/11/18 10:38:16;;;;;;;;;;;;;;;;;;5071125;28;19924;-76
2023/11/18 10:40:41;;;;;;;;;;;;;;;;;;5069892;28;19916;-76
2023/11/18 10:43:10;;;;;;;;;;;;;;;;;;5058301;28;19920;-77
2023/11/18 10:45:38;;;;;;;;;;;;;;;;;;5060424;28;19927;-77
2023/11/18 10:48:04;;;;;;;;;;;;;;;;;;5059090;28;20013;-77
2023/11/18 10:50:39;;;;;;;;;;;;;;;;;;5059051;28;19955;-76
2023/11/18 10:53:11;;;;;;;;;;;;;;;;;;5058883;28;20728;-77
2023/11/18 10:55:37;;;;;;;;;;;;;;;;;;5055478;28;19928;-74
2023/11/18 10:58:05;;;;;;;;;;;;;;;;;;5059358;28;20065;-76
2023/11/18 11:00:33;;;;;;;;;;;;;;;;;;5065313;28;20320;-76
2023/11/18 11:02:58;;;;;;;;;;;;;;;;;;5041364;28;19931;-77
2023/11/18 11:05:26;;;;;;;;;;;;;;;;;;5057263;28;19955;-78
2023/11/18 11:07:56;;;;;;;;;;;;;;;;;;5040402;28;19916;-76
2023/11/18 11:10:28;;;;;;;;;;;;;;;;;;5071761;28;19936;-76
2023/11/18 11:12:57;;;;;;;;;;;;;;;;;;5058272;28;19997;-77
2023/11/18 11:15:22;;;;;;;;;;;;;;;;;;5070138;28;19967;-76
2023/11/18 11:17:52;;;;;;;;;;;;;;;;;;5054976;28;20101;-74
2023/11/18 11:20:17;;;;;;;;;;;;;;;;;;5055650;28;19929;-77
2023/11/18 11:22:48;;;;;;;;;;;;;;;;;;5045656;28;20387;-71
2023/11/18 11:25:21;;;;;;;;;;;;;;;;;;5056613;28;20043;-78
2023/11/18 11:27:51;;;;;;;;;;;;;;;;;;5071528;28;20046;-73
2023/11/18 11:33:40;;;;;;;;;;;;;;;;;;5070643;28;19938;-77
2023/11/18 11:39:30;;;;;;;;;;;;;;;;;;5068863;28;20448;-77
2023/11/18 11:41:56;;;;;;;;;;;;;;;;;;5061421;28;19916;-78
2023/11/18 11:44:28;;;;;;;;;;;;;;;;;;5042425;28;19977;-77
2023/11/18 11:46:55;;;;;;;;;;;;;;;;;;5057674;28;19916;-78
2023/11/18 11:49:27;;;;;;;;;;;;;;;;;;5053322;28;20466;-74
2023/11/18 11:51:55;;;;;;;;;;;;;;;;;;5056690;28;20383;-75
2023/11/18 11:54:21;;;;;;;;;;;;;;;;;;5056328;28;19924;-74
2023/11/18 11:56:59;;;;;;;;;;;;;;;;;;5056995;28;19924;-76
2023/11/18 11:59:28;;;;;;;;;;;;;;;;;;5073648;28;19965;-74
2023/11/18 12:01:53;;;;;;;;;;;;;;;;;;5074400;28;20298;-76
2023/11/18 12:04:21;;;;;;;;;;;;;;;;;;5074193;28;20447;-76
2023/11/18 12:06:47;;;;;;;;;;;;;;;;;;5058170;28;20015;-79
2023/11/18 12:09:19;;;;;;;;;;;;;;;;;;5074989;28;20027;-76
2023/11/18 12:11:47;;;;;;;;;;;;;;;;;;5060021;27;20486;-77
2023/11/18 12:14:15;;;;;;;;;;;;;;;;;;5075098;28;19920;-78
2023/11/18 12:16:40;;;;;;;;;;;;;;;;;;5074825;28;19977;-74
2023/11/18 12:19:10;;;;;;;;;;;;;;;;;;5061504;28;20321;-74
2023/11/18 12:21:38;;;;;;;;;;;;;;;;;;5058611;28;19923;-74
2023/11/18 12:24:09;;;;;;;;;;;;;;;;;;5066987;28;20511;-75
2023/11/18 12:26:35;;;;;;;;;;;;;;;;;;5059125;28;20415;-73
2023/11/18 12:29:00;;;;;;;;;;;;;;;;;;5073488;28;20044;-75
2023/11/18 12:31:27;;;;;;;;;;;;;;;;;;5081322;27;19920;-76
2023/11/18 12:33:53;;;;;;;;;;;;;;;;;;5077298;28;20374;-70
2023/11/18 12:36:21;;;;;;;;;;;;;;;;;;5081453;28;19926;-76
2023/11/18 12:38:46;;;;;;;;;;;;;;;;;;5076530;28;19964;-76
2023/11/18 12:41:12;;;;;;;;;;;;;;;;;;5059492;28;20299;-77
2023/11/18 12:43:37;;;;;;;;;;;;;;;;;;5071643;28;19920;-77
2023/11/18 12:46:05;;;;;;;;;;;;;;;;;;5075311;28;19916;-75
2023/11/18 12:48:32;;;;;;;;;;;;;;;;;;5054027;28;19919;-76
2023/11/18 12:50:57;;;;;;;;;;;;;;;;;;5088102;28;19919;-76
2023/11/18 12:53:24;;;;;;;;;;;;;;;;;;5071453;28;19927;-77
2023/11/18 12:55:49;;;;;;;;;;;;;;;;;;5050405;28;21466;-76
2023/11/18 12:58:14;;;;;;;;;;;;;;;;;;5067218;28;20508;-77
2023/11/18 13:00:40;;;;;;;;;;;;;;;;;;5053513;28;20382;-76
2023/11/18 13:03:10;;;;;;;;;;;;;;;;;;5055038;28;20271;-76
2023/11/18 13:05:36;;;;;;;;;;;;;;;;;;5068052;28;19995;-76
2023/11/18 13:08:02;;;;;;;;;;;;;;;;;;5071410;28;20443;-75
2023/11/18 13:10:34;;;;;;;;;;;;;;;;;;5043669;28;19924;-71
2023/11/18 13:13:00;;;;;;;;;;;;;;;;;;5026313;28;19932;-77
2023/11/18 13:15:25;;;;;;;;;;;;;;;;;;5027866;28;20035;-75
2023/11/18 13:17:51;;;;;;;;;;;;;;;;;;5043989;28;19955;-75
2023/11/18 13:20:17;;;;;;;;;;;;;;;;;;5027390;28;19943;-70
2023/11/18 13:22:43;;;;;;;;;;;;;;;;;;5044542;28;19994;-71
2023/11/18 13:25:09;;;;;;;;;;;;;;;;;;5043375;28;19921;-71
2023/11/18 13:27:34;;;;;;;;;;;;;;;;;;5046703;28;19947;-71
2023/11/18 13:30:05;;;;;;;;;;;;;;;;;;5044504;28;19934;-69
2023/11/18 13:32:30;;;;;;;;;;;;;;;;;;5028786;28;19928;-72
2023/11/18 13:34:55;;;;;;;;;;;;;;;;;;5020640;28;19959;-73
2023/11/18 13:37:26;;;;;;;;;;;;;;;;;;5025678;28;19995;-70
2023/11/18 13:39:52;;;;;;;;;;;;;;;;;;5010969;28;20067;-73
2023/11/18 13:42:17;;;;;;;;;;;;;;;;;;5025908;28;19921;-70
2023/11/18 13:44:42;;;;;;;;;;;;;;;;;;5009543;28;19967;-70
2023/11/18 13:47:11;;;;;;;;;;;;;;;;;;5023271;28;20015;-72
2023/11/18 13:49:36;;;;;;;;;;;;;;;;;;5021418;28;19932;-71
2023/11/18 13:52:06;;;;;;;;;;;;;;;;;;5027474;28;20484;-68
2023/11/18 13:54:32;;;;;;;;;;;;;;;;;;5045956;28;19916;-71
2023/11/18 13:56:58;;;;;;;;;;;;;;;;;;5010723;28;19927;-72
2023/11/18 13:59:26;;;;;;;;;;;;;;;;;;5027556;28;20380;-72
2023/11/18 14:01:51;;;;;;;;;;;;;;;;;;5004632;28;20339;-68
2023/11/18 14:04:18;;;;;;;;;;;;;;;;;;5029400;28;20324;-65
2023/11/18 14:10:00;;;;;;;;;;;;;;;;;;5031532;28;19931;-66
2023/11/18 14:12:29;;;;;;;;;;;;;;;;;;5032054;28;19931;-73
2023/11/18 14:14:54;;;;;;;;;;;;;;;;;;5030586;28;20379;-72
2023/11/18 14:17:24;;;;;;;;;;;;;;;;;;5012885;28;20652;-66
2023/11/18 14:19:52;;;;;;;;;;;;;;;;;;5011098;28;19939;-68
2023/11/18 14:22:20;;;;;;;;;;;;;;;;;;4998370;28;19931;-66
2023/11/18 14:24:48;;;;;;;;;;;;;;;;;;4977160;28;19921;-67
2023/11/18 14:27:15;;;;;;;;;;;;;;;;;;5015336;28;19916;-68
2023/11/18 14:29:43;;;;;;;;;;;;;;;;;;4984499;28;19932;-67
2023/11/18 14:32:08;;;;;;;;;;;;;;;;;;5012754;28;20300;-65
2023/11/18 14:34:36;;;;;;;;;;;;;;;;;;4996576;28;19921;-71
2023/11/18 14:37:02;;;;;;;;;;;;;;;;;;4981656;28;20805;-65
2023/11/18 14:39:29;;;;;;;;;;;;;;;;;;4998152;28;19917;-66
2023/11/18 14:41:55;;;;;;;;;;;;;;;;;;5005701;28;19924;-68
2023/11/18 14:44:23;;;;;;;;;;;;;;;;;;4997813;28;19972;-65
2023/11/18 14:46:51;;;;;;;;;;;;;;;;;;4998149;28;20008;-67
2023/11/18 14:49:19;;;;;;;;;;;;;;;;;;4980232;28;19944;-66
2023/11/18 14:51:45;;;;;;;;;;;;;;;;;;4991978;28;20047;-66
2023/11/18 14:54:10;;;;;;;;;;;;;;;;;;4978955;28;19971;-67
2023/11/18 14:56:38;;;;;;;;;;;;;;;;;;4980009;28;20592;-67
2023/11/18 14:59:05;;;;;;;;;;;;;;;;;;4997767;28;20003;-66
2023/11/18 15:01:30;;;;;;;;;;;;;;;;;;4976042;28;19929;-68
2023/11/18 15:03:56;;;;;;;;;;;;;;;;;;4993640;28;19970;-71
2023/11/18 15:06:23;;;;;;;;;;;;;;;;;;4979943;28;20007;-69
2023/11/18 15:08:53;;;;;;;;;;;;;;;;;;4996030;28;20403;-68
2023/11/18 15:11:18;;;;;;;;;;;;;;;;;;5018474;28;20408;-68
2023/11/18 15:13:43;;;;;;;;;;;;;;;;;;4981508;28;20015;-69
2023/11/18 15:16:09;;;;;;;;;;;;;;;;;;4984065;28;19977;-67
2023/11/18 15:18:38;;;;;;;;;;;;;;;;;;5015822;28;20035;-68
2023/11/18 15:21:06;;;;;;;;;;;;;;;;;;4977093;28;19923;-68
2023/11/18 15:23:31;;;;;;;;;;;;;;;;;;4997165;28;19921;-67
2023/11/18 15:25:56;;;;;;;;;;;;;;;;;;4996010;28;19928;-70
2023/11/18 15:28:22;;;;;;;;;;;;;;;;;;4982450;28;19947;-68
2023/11/18 15:30:48;;;;;;;;;;;;;;;;;;5015732;28;20278;-67
2023/11/18 15:33:16;;;;;;;;;;;;;;;;;;4997895;28;20075;-68
2023/11/18 15:35:41;;;;;;;;;;;;;;;;;;5015388;28;19921;-68
2023/11/18 15:38:08;;;;;;;;;;;;;;;;;;4996988;28;20320;-67
2023/11/18 15:40:36;;;;;;;;;;;;;;;;;;5014654;28;20234;-68
2023/11/18 15:43:08;;;;;;;;;;;;;;;;;;4980577;28;19980;-67
2023/11/18 15:45:33;;;;;;;;;;;;;;;;;;4994199;28;19917;-67
2023/11/18 15:48:04;;;;;;;;;;;;;;;;;;4979891;28;19925;-69
2023/11/18 15:50:37;;;;;;;;;;;;;;;;;;5016787;28;19983;-66
2023/11/18 15:55:56;;;;;;;;;;;;;;;;;;5013393;28;20325;-66
2023/11/18 15:58:26;;;;;;;;;;;;;;;;;;4978566;28;19977;-68
2023/11/18 16:00:54;;;;;;;;;;;;;;;;;;4998501;28;19967;-65
2023/11/18 16:03:22;;;;;;;;;;;;;;;;;;4990745;28;19913;-66
2023/11/18 16:05:50;;;;;;;;;;;;;;;;;;4979600;28;19921;-66
2023/11/18 16:08:15;;;;;;;;;;;;;;;;;;4981494;28;19928;-66
2023/11/18 16:10:45;;;;;;;;;;;;;;;;;;4980186;28;19925;-65
2023/11/18 16:13:11;;;;;;;;;;;;;;;;;;4996249;28;20604;-68
2023/11/18 16:15:36;;;;;;;;;;;;;;;;;;4998012;28;19996;-67
2023/11/18 16:18:02;;;;;;;;;;;;;;;;;;5013699;28;20007;-64
2023/11/18 16:20:27;;;;;;;;;;;;;;;;;;5012448;28;19974;-64
2023/11/18 16:22:52;;;;;;;;;;;;;;;;;;5014444;28;19995;-65
2023/11/18 16:25:20;;;;;;;;;;;;;;;;;;4994449;28;19921;-65
2023/11/18 16:27:46;;;;;;;;;;;;;;;;;;4996658;28;19917;-66
2023/11/18 16:30:11;;;;;;;;;;;;;;;;;;4979839;28;19947;-65
2023/11/18 16:32:36;;;;;;;;;;;;;;;;;;4979565;28;19921;-65
2023/11/18 16:35:09;;;;;;;;;;;;;;;;;;5013388;28;19994;-66
2023/11/18 16:37:35;;;;;;;;;;;;;;;;;;4995953;28;19952;-66
2023/11/18 16:40:00;;;;;;;;;;;;;;;;;;4979050;28;19921;-65
2023/11/18 16:42:28;;;;;;;;;;;;;;;;;;4978058;28;19921;-65
2023/11/18 16:44:57;;;;;;;;;;;;;;;;;;4979883;28;19976;-64
2023/11/18 16:47:27;;;;;;;;;;;;;;;;;;4996050;28;20282;-65
2023/11/18 16:49:53;;;;;;;;;;;;;;;;;;4977516;28;20538;-69
2023/11/18 16:52:18;;;;;;;;;;;;;;;;;;5009712;28;19972;-65
2023/11/18 16:54:43;;;;;;;;;;;;;;;;;;4993779;28;19971;-65
2023/11/18 16:57:12;;;;;;;;;;;;;;;;;;4977332;28;19998;-64
2023/11/18 16:59:37;;;;;;;;;;;;;;;;;;5011991;28;20280;-64
2023/11/18 17:02:05;;;;;;;;;;;;;;;;;;4993159;28;20145;-65
2023/11/18 17:04:31;;;;;;;;;;;;;;;;;;4994117;28;20668;-64
2023/11/18 17:06:57;;;;;;;;;;;;;;;;;;5010743;28;19920;-66
2023/11/18 17:09:22;;;;;;;;;;;;;;;;;;4974639;28;19929;-66
2023/11/18 17:11:48;;;;;;;;;;;;;;;;;;4994593;28;19921;-68
2023/11/18 17:14:14;;;;;;;;;;;;;;;;;;4993682;28;19917;-65
2023/11/18 17:16:42;;;;;;;;;;;;;;;;;;4977530;28;19967;-67
2023/11/18 17:19:11;;;;;;;;;;;;;;;;;;4991414;28;19929;-66
2023/11/18 17:21:40;;;;;;;;;;;;;;;;;;4992630;28;20167;-66
2023/11/18 17:24:07;;;;;;;;;;;;;;;;;;4990764;28;20344;-66
2023/11/18 17:26:32;;;;;;;;;;;;;;;;;;4990884;28;20505;-66
2023/11/18 17:28:59;;;;;;;;;;;;;;;;;;5013046;28;19932;-64
2023/11/18 17:31:25;;;;;;;;;;;;;;;;;;5012467;28;20450;-67
2023/11/18 17:33:53;;;;;;;;;;;;;;;;;;4994361;28;21034;-66
2023/11/18 17:36:23;;;;;;;;;;;;;;;;;;4996544;28;20273;-66
2023/11/18 17:38:50;;;;;;;;;;;;;;;;;;5015578;28;20453;-67